sensor_id;sensor_type;location;lat;lon;timestamp;P1;durP1;ratioP1;P2;durP2;ratioP2
74715;SDS011;63234;37.558;127.058;2023-07-20T00:01:26;5.38;;;2.10;;
74715;SDS011;63234;37.558;127.058;2023-07-20T00:03:52;3.42;;;1.83;;
74715;SDS011;63234;37.558;127.058;2023-07-20T00:06:21;5.85;;;2.45;;
74715;SDS011;63234;37.558;127.058;2023-07-20T00:08:47;5.32;;;2.40;;
74715;SDS011;63234;37.558;127.058;2023-07-20T00:11:13;5.90;;;2.33;;
74715;SDS011;63234;37.558;127.058;2023-07-20T00:13:39;5.93;;;2.05;;
74715;SDS011;63234;37.558;127.058;2023-07-20T00:16:06;4.22;;;1.95;;
74715;SDS011;63234;37.558;127.058;2023-07-20T00:18:32;5.68;;;2.10;;
74715;SDS011;63234;37.558;127.058;2023-07-20T00:20:58;4.43;;;2.28;;
74715;SDS011;63234;37.558;127.058;2023-07-20T00:23:27;5.32;;;2.42;;
74715;SDS011;63234;37.558;127.058;2023-07-20T00:25:53;2.90;;;1.75;;
74715;SDS011;63234;37.558;127.058;2023-07-20T00:28:19;4.30;;;2.15;;
74715;SDS011;63234;37.558;127.058;2023-07-20T00:30:46;3.22;;;1.70;;
74715;SDS011;63234;37.558;127.058;2023-07-20T00:33:12;3.25;;;1.90;;
74715;SDS011;63234;37.558;127.058;2023-07-20T00:35:38;3.70;;;2.20;;
74715;SDS011;63234;37.558;127.058;2023-07-20T00:38:04;4.57;;;2.03;;
74715;SDS011;63234;37.558;127.058;2023-07-20T00:40:37;5.45;;;2.40;;
74715;SDS011;63234;37.558;127.058;2023-07-20T00:43:03;5.03;;;2.20;;
74715;SDS011;63234;37.558;127.058;2023-07-20T00:45:29;4.43;;;2.10;;
74715;SDS011;63234;37.558;127.058;2023-07-20T00:47:56;5.38;;;2.15;;
74715;SDS011;63234;37.558;127.058;2023-07-20T00:50:23;3.95;;;1.98;;
74715;SDS011;63234;37.558;127.058;2023-07-20T00:52:51;6.72;;;2.00;;
74715;SDS011;63234;37.558;127.058;2023-07-20T00:55:18;6.22;;;2.05;;
74715;SDS011;63234;37.558;127.058;2023-07-20T00:57:45;5.30;;;2.10;;
74715;SDS011;63234;37.558;127.058;2023-07-20T01:00:11;5.72;;;2.22;;
74715;SDS011;63234;37.558;127.058;2023-07-20T01:02:38;5.82;;;2.05;;
74715;SDS011;63234;37.558;127.058;2023-07-20T01:05:04;3.65;;;2.00;;
74715;SDS011;63234;37.558;127.058;2023-07-20T01:12:59;2.75;;;2.10;;
74715;SDS011;63234;37.558;127.058;2023-07-20T01:15:27;4.85;;;2.20;;
74715;SDS011;63234;37.558;127.058;2023-07-20T01:17:53;3.65;;;1.95;;
74715;SDS011;63234;37.558;127.058;2023-07-20T01:20:19;4.97;;;2.40;;
74715;SDS011;63234;37.558;127.058;2023-07-20T01:25:58;6.20;;;2.28;;
74715;SDS011;63234;37.558;127.058;2023-07-20T01:31:34;4.85;;;2.15;;
74715;SDS011;63234;37.558;127.058;2023-07-20T01:34:03;7.60;;;2.65;;
74715;SDS011;63234;37.558;127.058;2023-07-20T01:36:33;4.03;;;2.20;;
74715;SDS011;63234;37.558;127.058;2023-07-20T01:39:01;4.47;;;2.30;;
74715;SDS011;63234;37.558;127.058;2023-07-20T01:41:30;5.85;;;2.22;;
74715;SDS011;63234;37.558;127.058;2023-07-20T01:43:59;8.13;;;2.83;;
74715;SDS011;63234;37.558;127.058;2023-07-20T01:46:25;4.85;;;2.40;;
74715;SDS011;63234;37.558;127.058;2023-07-20T01:48:51;8.02;;;2.25;;
74715;SDS011;63234;37.558;127.058;2023-07-20T01:51:18;4.45;;;2.05;;
74715;SDS011;63234;37.558;127.058;2023-07-20T01:53:44;8.50;;;2.42;;
74715;SDS011;63234;37.558;127.058;2023-07-20T01:56:10;4.30;;;2.20;;
74715;SDS011;63234;37.558;127.058;2023-07-20T01:58:37;5.20;;;2.03;;
74715;SDS011;63234;37.558;127.058;2023-07-20T02:01:04;4.00;;;2.20;;
74715;SDS011;63234;37.558;127.058;2023-07-20T02:03:30;4.50;;;2.80;;
74715;SDS011;63234;37.558;127.058;2023-07-20T02:05:56;4.43;;;2.13;;
74715;SDS011;63234;37.558;127.058;2023-07-20T02:08:24;6.93;;;2.10;;
74715;SDS011;63234;37.558;127.058;2023-07-20T02:10:51;4.85;;;2.50;;
74715;SDS011;63234;37.558;127.058;2023-07-20T02:13:17;3.10;;;2.08;;
74715;SDS011;63234;37.558;127.058;2023-07-20T02:15:43;5.97;;;2.42;;
74715;SDS011;63234;37.558;127.058;2023-07-20T02:18:09;4.30;;;2.60;;
74715;SDS011;63234;37.558;127.058;2023-07-20T02:20:36;4.47;;;2.33;;
74715;SDS011;63234;37.558;127.058;2023-07-20T02:23:02;3.45;;;2.03;;
74715;SDS011;63234;37.558;127.058;2023-07-20T02:25:28;4.95;;;2.28;;
74715;SDS011;63234;37.558;127.058;2023-07-20T02:27:56;4.45;;;2.40;;
74715;SDS011;63234;37.558;127.058;2023-07-20T02:30:23;5.90;;;2.60;;
74715;SDS011;63234;37.558;127.058;2023-07-20T02:32:49;3.92;;;2.55;;
74715;SDS011;63234;37.558;127.058;2023-07-20T02:35:15;4.30;;;2.25;;
74715;SDS011;63234;37.558;127.058;2023-07-20T02:37:42;7.22;;;2.65;;
74715;SDS011;63234;37.558;127.058;2023-07-20T02:40:08;6.68;;;2.40;;
74715;SDS011;63234;37.558;127.058;2023-07-20T02:42:34;4.57;;;2.67;;
74715;SDS011;63234;37.558;127.058;2023-07-20T02:45:02;4.43;;;2.25;;
74715;SDS011;63234;37.558;127.058;2023-07-20T02:47:29;5.55;;;2.53;;
74715;SDS011;63234;37.558;127.058;2023-07-20T02:49:56;5.47;;;2.42;;
74715;SDS011;63234;37.558;127.058;2023-07-20T02:52:22;5.78;;;2.33;;
74715;SDS011;63234;37.558;127.058;2023-07-20T02:54:49;4.90;;;2.30;;
74715;SDS011;63234;37.558;127.058;2023-07-20T02:57:15;4.28;;;2.58;;
74715;SDS011;63234;37.558;127.058;2023-07-20T02:59:41;7.47;;;2.45;;
74715;SDS011;63234;37.558;127.058;2023-07-20T03:02:07;6.15;;;2.30;;
74715;SDS011;63234;37.558;127.058;2023-07-20T03:04:35;4.13;;;2.60;;
74715;SDS011;63234;37.558;127.058;2023-07-20T03:07:04;5.90;;;2.90;;
74715;SDS011;63234;37.558;127.058;2023-07-20T03:09:32;4.75;;;2.40;;
74715;SDS011;63234;37.558;127.058;2023-07-20T03:11:58;4.40;;;2.45;;
74715;SDS011;63234;37.558;127.058;2023-07-20T03:14:24;5.13;;;2.72;;
74715;SDS011;63234;37.558;127.058;2023-07-20T03:16:50;5.93;;;2.50;;
74715;SDS011;63234;37.558;127.058;2023-07-20T03:19:16;4.03;;;2.22;;
74715;SDS011;63234;37.558;127.058;2023-07-20T03:21:42;4.80;;;2.60;;
74715;SDS011;63234;37.558;127.058;2023-07-20T03:24:08;6.43;;;2.70;;
74715;SDS011;63234;37.558;127.058;2023-07-20T03:26:35;8.15;;;2.80;;
74715;SDS011;63234;37.558;127.058;2023-07-20T03:29:02;5.32;;;2.75;;
74715;SDS011;63234;37.558;127.058;2023-07-20T03:31:29;4.32;;;2.83;;
74715;SDS011;63234;37.558;127.058;2023-07-20T03:33:55;4.45;;;2.72;;
74715;SDS011;63234;37.558;127.058;2023-07-20T03:36:21;6.00;;;2.85;;
74715;SDS011;63234;37.558;127.058;2023-07-20T03:38:47;8.80;;;3.00;;
74715;SDS011;63234;37.558;127.058;2023-07-20T03:41:13;4.97;;;2.92;;
74715;SDS011;63234;37.558;127.058;2023-07-20T03:43:41;6.68;;;3.00;;
74715;SDS011;63234;37.558;127.058;2023-07-20T03:46:07;5.65;;;2.90;;
74715;SDS011;63234;37.558;127.058;2023-07-20T03:48:33;4.43;;;2.72;;
74715;SDS011;63234;37.558;127.058;2023-07-20T03:50:59;4.57;;;3.05;;
74715;SDS011;63234;37.558;127.058;2023-07-20T03:53:25;6.45;;;2.90;;
74715;SDS011;63234;37.558;127.058;2023-07-20T03:55:52;8.38;;;2.83;;
74715;SDS011;63234;37.558;127.058;2023-07-20T03:58:19;7.65;;;2.88;;
74715;SDS011;63234;37.558;127.058;2023-07-20T04:00:47;6.85;;;2.67;;
74715;SDS011;63234;37.558;127.058;2023-07-20T04:03:15;4.10;;;2.55;;
74715;SDS011;63234;37.558;127.058;2023-07-20T04:05:42;8.07;;;2.90;;
74715;SDS011;63234;37.558;127.058;2023-07-20T04:08:08;3.50;;;2.38;;
74715;SDS011;63234;37.558;127.058;2023-07-20T04:10:36;6.88;;;3.30;;
74715;SDS011;63234;37.558;127.058;2023-07-20T04:13:03;4.25;;;2.85;;
74715;SDS011;63234;37.558;127.058;2023-07-20T04:15:30;7.57;;;2.83;;
74715;SDS011;63234;37.558;127.058;2023-07-20T04:17:56;3.97;;;2.47;;
74715;SDS011;63234;37.558;127.058;2023-07-20T04:20:23;7.35;;;2.75;;
74715;SDS011;63234;37.558;127.058;2023-07-20T04:22:49;6.55;;;2.63;;
74715;SDS011;63234;37.558;127.058;2023-07-20T04:25:16;6.18;;;2.60;;
74715;SDS011;63234;37.558;127.058;2023-07-20T04:27:43;3.47;;;2.35;;
74715;SDS011;63234;37.558;127.058;2023-07-20T04:30:09;4.07;;;2.42;;
74715;SDS011;63234;37.558;127.058;2023-07-20T04:32:37;5.43;;;2.45;;
74715;SDS011;63234;37.558;127.058;2023-07-20T04:35:06;6.18;;;2.60;;
74715;SDS011;63234;37.558;127.058;2023-07-20T04:37:35;6.18;;;2.53;;
74715;SDS011;63234;37.558;127.058;2023-07-20T04:40:01;3.97;;;2.30;;
74715;SDS011;63234;37.558;127.058;2023-07-20T04:42:28;5.80;;;2.40;;
74715;SDS011;63234;37.558;127.058;2023-07-20T04:44:54;4.80;;;2.53;;
74715;SDS011;63234;37.558;127.058;2023-07-20T04:47:20;6.20;;;2.90;;
74715;SDS011;63234;37.558;127.058;2023-07-20T04:49:46;8.00;;;3.03;;
74715;SDS011;63234;37.558;127.058;2023-07-20T04:52:12;6.45;;;2.35;;
74715;SDS011;63234;37.558;127.058;2023-07-20T04:54:39;5.50;;;2.70;;
74715;SDS011;63234;37.558;127.058;2023-07-20T04:57:11;5.50;;;2.53;;
74715;SDS011;63234;37.558;127.058;2023-07-20T04:59:38;4.90;;;2.72;;
74715;SDS011;63234;37.558;127.058;2023-07-20T05:02:04;4.75;;;2.45;;
74715;SDS011;63234;37.558;127.058;2023-07-20T05:04:30;8.52;;;2.78;;
74715;SDS011;63234;37.558;127.058;2023-07-20T05:06:56;7.30;;;2.80;;
74715;SDS011;63234;37.558;127.058;2023-07-20T05:09:22;3.88;;;2.33;;
74715;SDS011;63234;37.558;127.058;2023-07-20T05:11:48;6.10;;;2.60;;
74715;SDS011;63234;37.558;127.058;2023-07-20T05:14:14;4.95;;;3.08;;
74715;SDS011;63234;37.558;127.058;2023-07-20T05:16:40;6.80;;;2.90;;
74715;SDS011;63234;37.558;127.058;2023-07-20T05:19:06;5.82;;;2.80;;
74715;SDS011;63234;37.558;127.058;2023-07-20T05:21:32;5.78;;;2.40;;
74715;SDS011;63234;37.558;127.058;2023-07-20T05:23:58;7.00;;;2.72;;
74715;SDS011;63234;37.558;127.058;2023-07-20T05:26:24;5.18;;;2.40;;
74715;SDS011;63234;37.558;127.058;2023-07-20T05:28:50;4.22;;;2.30;;
74715;SDS011;63234;37.558;127.058;2023-07-20T05:31:15;6.35;;;2.40;;
74715;SDS011;63234;37.558;127.058;2023-07-20T05:33:41;4.97;;;2.45;;
74715;SDS011;63234;37.558;127.058;2023-07-20T05:36:07;6.20;;;2.72;;
74715;SDS011;63234;37.558;127.058;2023-07-20T05:38:33;3.20;;;2.22;;
74715;SDS011;63234;37.558;127.058;2023-07-20T05:41:00;4.18;;;2.55;;
74715;SDS011;63234;37.558;127.058;2023-07-20T05:43:27;10.30;;;2.00;;
74715;SDS011;63234;37.558;127.058;2023-07-20T05:45:53;3.67;;;1.83;;
74715;SDS011;63234;37.558;127.058;2023-07-20T05:48:19;4.82;;;2.08;;
74715;SDS011;63234;37.558;127.058;2023-07-20T05:50:45;2.80;;;1.65;;
74715;SDS011;63234;37.558;127.058;2023-07-20T05:53:11;10.75;;;1.92;;
74715;SDS011;63234;37.558;127.058;2023-07-20T05:55:37;3.67;;;1.92;;
74715;SDS011;63234;37.558;127.058;2023-07-20T05:58:04;5.40;;;2.10;;
74715;SDS011;63234;37.558;127.058;2023-07-20T06:00:30;2.75;;;1.77;;
74715;SDS011;63234;37.558;127.058;2023-07-20T06:02:56;5.57;;;2.00;;
74715;SDS011;63234;37.558;127.058;2023-07-20T06:05:22;4.40;;;1.95;;
74715;SDS011;63234;37.558;127.058;2023-07-20T06:07:49;4.55;;;2.22;;
74715;SDS011;63234;37.558;127.058;2023-07-20T06:10:15;3.70;;;2.03;;
74715;SDS011;63234;37.558;127.058;2023-07-20T06:12:41;4.45;;;2.25;;
74715;SDS011;63234;37.558;127.058;2023-07-20T06:15:23;3.75;;;2.05;;
74715;SDS011;63234;37.558;127.058;2023-07-20T06:18:03;2.47;;;1.40;;
74715;SDS011;63234;37.558;127.058;2023-07-20T06:20:29;4.15;;;1.55;;
74715;SDS011;63234;37.558;127.058;2023-07-20T06:22:55;3.85;;;1.80;;
74715;SDS011;63234;37.558;127.058;2023-07-20T06:25:21;2.85;;;1.58;;
74715;SDS011;63234;37.558;127.058;2023-07-20T06:27:49;2.78;;;1.90;;
74715;SDS011;63234;37.558;127.058;2023-07-20T06:30:17;4.80;;;1.50;;
74715;SDS011;63234;37.558;127.058;2023-07-20T06:32:43;2.50;;;1.70;;
74715;SDS011;63234;37.558;127.058;2023-07-20T06:35:09;4.10;;;1.48;;
74715;SDS011;63234;37.558;127.058;2023-07-20T06:37:35;2.53;;;1.70;;
74715;SDS011;63234;37.558;127.058;2023-07-20T06:40:04;6.80;;;1.67;;
74715;SDS011;63234;37.558;127.058;2023-07-20T06:42:30;5.82;;;1.70;;
74715;SDS011;63234;37.558;127.058;2023-07-20T06:44:56;2.92;;;1.60;;
74715;SDS011;63234;37.558;127.058;2023-07-20T06:47:23;3.78;;;1.70;;
74715;SDS011;63234;37.558;127.058;2023-07-20T06:49:49;3.17;;;1.63;;
74715;SDS011;63234;37.558;127.058;2023-07-20T06:52:15;1.88;;;1.40;;
74715;SDS011;63234;37.558;127.058;2023-07-20T06:54:41;7.57;;;2.22;;
74715;SDS011;63234;37.558;127.058;2023-07-20T06:57:07;3.20;;;1.75;;
74715;SDS011;63234;37.558;127.058;2023-07-20T06:59:33;3.45;;;1.70;;
74715;SDS011;63234;37.558;127.058;2023-07-20T07:01:59;2.25;;;1.50;;
74715;SDS011;63234;37.558;127.058;2023-07-20T07:04:25;4.22;;;1.80;;
74715;SDS011;63234;37.558;127.058;2023-07-20T07:06:51;3.83;;;1.83;;
74715;SDS011;63234;37.558;127.058;2023-07-20T07:09:16;4.07;;;1.73;;
74715;SDS011;63234;37.558;127.058;2023-07-20T07:11:43;6.88;;;1.70;;
74715;SDS011;63234;37.558;127.058;2023-07-20T07:14:10;3.38;;;1.50;;
74715;SDS011;63234;37.558;127.058;2023-07-20T07:16:37;3.10;;;1.65;;
74715;SDS011;63234;37.558;127.058;2023-07-20T07:19:03;4.38;;;1.67;;
74715;SDS011;63234;37.558;127.058;2023-07-20T07:21:31;3.35;;;1.50;;
74715;SDS011;63234;37.558;127.058;2023-07-20T07:23:57;3.53;;;1.80;;
74715;SDS011;63234;37.558;127.058;2023-07-20T07:26:25;5.47;;;1.90;;
74715;SDS011;63234;37.558;127.058;2023-07-20T07:28:51;3.25;;;1.70;;
74715;SDS011;63234;37.558;127.058;2023-07-20T07:31:17;3.38;;;1.70;;
74715;SDS011;63234;37.558;127.058;2023-07-20T07:33:43;3.65;;;1.85;;
74715;SDS011;63234;37.558;127.058;2023-07-20T07:36:09;3.90;;;1.95;;
74715;SDS011;63234;37.558;127.058;2023-07-20T07:38:35;3.40;;;1.80;;
74715;SDS011;63234;37.558;127.058;2023-07-20T07:41:00;4.90;;;1.75;;
74715;SDS011;63234;37.558;127.058;2023-07-20T07:43:26;3.30;;;1.80;;
74715;SDS011;63234;37.558;127.058;2023-07-20T07:45:53;3.33;;;2.00;;
74715;SDS011;63234;37.558;127.058;2023-07-20T07:48:20;4.70;;;1.85;;
74715;SDS011;63234;37.558;127.058;2023-07-20T07:50:47;2.72;;;1.80;;
74715;SDS011;63234;37.558;127.058;2023-07-20T07:53:13;3.72;;;1.73;;
74715;SDS011;63234;37.558;127.058;2023-07-20T07:55:39;3.10;;;1.77;;
74715;SDS011;63234;37.558;127.058;2023-07-20T07:58:05;4.85;;;2.17;;
74715;SDS011;63234;37.558;127.058;2023-07-20T08:00:30;7.82;;;2.10;;
74715;SDS011;63234;37.558;127.058;2023-07-20T08:02:56;3.55;;;1.88;;
74715;SDS011;63234;37.558;127.058;2023-07-20T08:05:22;5.03;;;1.95;;
74715;SDS011;63234;37.558;127.058;2023-07-20T08:07:48;3.20;;;1.95;;
74715;SDS011;63234;37.558;127.058;2023-07-20T08:10:13;2.40;;;1.63;;
74715;SDS011;63234;37.558;127.058;2023-07-20T08:12:39;2.85;;;1.73;;
74715;SDS011;63234;37.558;127.058;2023-07-20T08:15:05;4.45;;;2.00;;
74715;SDS011;63234;37.558;127.058;2023-07-20T08:17:31;3.65;;;1.90;;
74715;SDS011;63234;37.558;127.058;2023-07-20T08:19:57;3.30;;;2.05;;
74715;SDS011;63234;37.558;127.058;2023-07-20T08:22:23;4.97;;;2.53;;
74715;SDS011;63234;37.558;127.058;2023-07-20T08:24:49;4.95;;;2.17;;
74715;SDS011;63234;37.558;127.058;2023-07-20T08:27:15;3.00;;;1.92;;
74715;SDS011;63234;37.558;127.058;2023-07-20T08:29:40;3.95;;;1.77;;
74715;SDS011;63234;37.558;127.058;2023-07-20T08:32:06;3.13;;;1.80;;
74715;SDS011;63234;37.558;127.058;2023-07-20T08:34:32;4.00;;;2.10;;
74715;SDS011;63234;37.558;127.058;2023-07-20T08:36:58;2.63;;;1.88;;
74715;SDS011;63234;37.558;127.058;2023-07-20T08:39:24;4.70;;;2.00;;
74715;SDS011;63234;37.558;127.058;2023-07-20T08:41:50;5.82;;;2.10;;
74715;SDS011;63234;37.558;127.058;2023-07-20T08:44:19;8.90;;;2.50;;
74715;SDS011;63234;37.558;127.058;2023-07-20T08:46:45;3.90;;;1.98;;
74715;SDS011;63234;37.558;127.058;2023-07-20T08:49:14;4.70;;;2.45;;
74715;SDS011;63234;37.558;127.058;2023-07-20T08:51:43;4.10;;;2.15;;
74715;SDS011;63234;37.558;127.058;2023-07-20T08:54:10;4.22;;;1.90;;
74715;SDS011;63234;37.558;127.058;2023-07-20T08:56:37;3.40;;;1.92;;
74715;SDS011;63234;37.558;127.058;2023-07-20T08:59:05;2.92;;;1.70;;
74715;SDS011;63234;37.558;127.058;2023-07-20T09:01:33;5.78;;;1.70;;
74715;SDS011;63234;37.558;127.058;2023-07-20T09:04:01;4.18;;;2.15;;
74715;SDS011;63234;37.558;127.058;2023-07-20T09:06:27;3.45;;;2.03;;
74715;SDS011;63234;37.558;127.058;2023-07-20T09:08:53;4.50;;;2.38;;
74715;SDS011;63234;37.558;127.058;2023-07-20T09:11:19;2.25;;;1.50;;
74715;SDS011;63234;37.558;127.058;2023-07-20T09:13:45;2.47;;;1.48;;
74715;SDS011;63234;37.558;127.058;2023-07-20T09:16:13;2.97;;;1.60;;
74715;SDS011;63234;37.558;127.058;2023-07-20T09:18:40;3.20;;;1.55;;
74715;SDS011;63234;37.558;127.058;2023-07-20T09:21:06;3.55;;;1.88;;
74715;SDS011;63234;37.558;127.058;2023-07-20T09:23:36;4.53;;;1.70;;
74715;SDS011;63234;37.558;127.058;2023-07-20T09:26:10;2.38;;;1.63;;
74715;SDS011;63234;37.558;127.058;2023-07-20T09:29:10;5.93;;;1.90;;
74715;SDS011;63234;37.558;127.058;2023-07-20T09:31:33;5.47;;;1.45;;
74715;SDS011;63234;37.558;127.058;2023-07-20T09:33:58;5.43;;;1.67;;
74715;SDS011;63234;37.558;127.058;2023-07-20T09:36:26;3.78;;;1.70;;
74715;SDS011;63234;37.558;127.058;2023-07-20T09:38:53;4.70;;;1.60;;
74715;SDS011;63234;37.558;127.058;2023-07-20T09:41:19;5.15;;;1.60;;
74715;SDS011;63234;37.558;127.058;2023-07-20T09:43:46;2.22;;;1.40;;
74715;SDS011;63234;37.558;127.058;2023-07-20T09:46:12;3.15;;;1.70;;
74715;SDS011;63234;37.558;127.058;2023-07-20T09:48:39;5.60;;;2.00;;
74715;SDS011;63234;37.558;127.058;2023-07-20T09:51:04;4.07;;;1.70;;
74715;SDS011;63234;37.558;127.058;2023-07-20T09:53:33;3.80;;;2.10;;
74715;SDS011;63234;37.558;127.058;2023-07-20T09:56:00;5.35;;;1.88;;
74715;SDS011;63234;37.558;127.058;2023-07-20T09:58:27;4.22;;;1.75;;
74715;SDS011;63234;37.558;127.058;2023-07-20T10:00:54;4.38;;;2.10;;
74715;SDS011;63234;37.558;127.058;2023-07-20T10:03:23;3.75;;;1.50;;
74715;SDS011;63234;37.558;127.058;2023-07-20T10:05:58;2.67;;;1.80;;
74715;SDS011;63234;37.558;127.058;2023-07-20T10:08:32;2.22;;;1.73;;
74715;SDS011;63234;37.558;127.058;2023-07-20T10:11:05;3.10;;;1.67;;
74715;SDS011;63234;37.558;127.058;2023-07-20T10:13:33;2.78;;;1.65;;
74715;SDS011;63234;37.558;127.058;2023-07-20T10:16:05;1.92;;;1.50;;
74715;SDS011;63234;37.558;127.058;2023-07-20T10:21:15;2.83;;;1.60;;
74715;SDS011;63234;37.558;127.058;2023-07-20T10:23:44;3.10;;;1.52;;
74715;SDS011;63234;37.558;127.058;2023-07-20T10:26:10;3.60;;;1.67;;
74715;SDS011;63234;37.558;127.058;2023-07-20T10:28:37;2.85;;;1.25;;
74715;SDS011;63234;37.558;127.058;2023-07-20T10:31:04;4.68;;;2.17;;
74715;SDS011;63234;37.558;127.058;2023-07-20T10:33:33;4.95;;;1.98;;
74715;SDS011;63234;37.558;127.058;2023-07-20T10:36:02;2.47;;;1.65;;
74715;SDS011;63234;37.558;127.058;2023-07-20T10:38:42;2.85;;;1.55;;
74715;SDS011;63234;37.558;127.058;2023-07-20T10:41:18;3.83;;;1.40;;
74715;SDS011;63234;37.558;127.058;2023-07-20T10:43:46;4.18;;;1.52;;
74715;SDS011;63234;37.558;127.058;2023-07-20T10:46:13;3.03;;;1.65;;
74715;SDS011;63234;37.558;127.058;2023-07-20T10:51:27;2.78;;;1.60;;
74715;SDS011;63234;37.558;127.058;2023-07-20T10:53:56;3.53;;;1.70;;
74715;SDS011;63234;37.558;127.058;2023-07-20T10:56:27;2.00;;;1.40;;
74715;SDS011;63234;37.558;127.058;2023-07-20T10:58:59;4.50;;;1.90;;
74715;SDS011;63234;37.558;127.058;2023-07-20T11:01:29;3.72;;;2.20;;
74715;SDS011;63234;37.558;127.058;2023-07-20T11:03:59;2.25;;;1.30;;
74715;SDS011;63234;37.558;127.058;2023-07-20T11:11:26;2.13;;;1.27;;
74715;SDS011;63234;37.558;127.058;2023-07-20T11:13:57;2.22;;;1.27;;
74715;SDS011;63234;37.558;127.058;2023-07-20T11:19:16;3.20;;;1.55;;
74715;SDS011;63234;37.558;127.058;2023-07-20T11:21:42;2.53;;;1.48;;
74715;SDS011;63234;37.558;127.058;2023-07-20T11:24:09;2.72;;;1.30;;
74715;SDS011;63234;37.558;127.058;2023-07-20T11:26:40;2.40;;;1.30;;
74715;SDS011;63234;37.558;127.058;2023-07-20T11:29:07;4.05;;;1.73;;
74715;SDS011;63234;37.558;127.058;2023-07-20T11:31:39;2.70;;;1.65;;
74715;SDS011;63234;37.558;127.058;2023-07-20T11:34:11;5.38;;;2.10;;
74715;SDS011;63234;37.558;127.058;2023-07-20T11:36:39;3.33;;;1.50;;
74715;SDS011;63234;37.558;127.058;2023-07-20T11:39:09;3.10;;;1.60;;
74715;SDS011;63234;37.558;127.058;2023-07-20T11:41:37;3.00;;;1.52;;
74715;SDS011;63234;37.558;127.058;2023-07-20T11:44:04;2.10;;;1.17;;
74715;SDS011;63234;37.558;127.058;2023-07-20T11:46:33;3.47;;;1.60;;
74715;SDS011;63234;37.558;127.058;2023-07-20T11:49:00;3.42;;;1.70;;
74715;SDS011;63234;37.558;127.058;2023-07-20T11:51:27;2.85;;;1.60;;
74715;SDS011;63234;37.558;127.058;2023-07-20T11:53:54;2.83;;;1.58;;
74715;SDS011;63234;37.558;127.058;2023-07-20T11:56:22;4.32;;;1.80;;
74715;SDS011;63234;37.558;127.058;2023-07-20T11:58:48;1.75;;;1.20;;
74715;SDS011;63234;37.558;127.058;2023-07-20T12:01:14;5.18;;;2.13;;
74715;SDS011;63234;37.558;127.058;2023-07-20T12:03:42;3.20;;;2.05;;
74715;SDS011;63234;37.558;127.058;2023-07-20T12:09:30;3.00;;;1.60;;
74715;SDS011;63234;37.558;127.058;2023-07-20T12:11:56;2.78;;;1.95;;
74715;SDS011;63234;37.558;127.058;2023-07-20T12:14:25;3.08;;;1.55;;
74715;SDS011;63234;37.558;127.058;2023-07-20T12:16:54;3.88;;;1.80;;
74715;SDS011;63234;37.558;127.058;2023-07-20T12:19:20;1.60;;;1.20;;
74715;SDS011;63234;37.558;127.058;2023-07-20T12:21:50;1.50;;;1.27;;
74715;SDS011;63234;37.558;127.058;2023-07-20T12:24:24;5.88;;;1.65;;
74715;SDS011;63234;37.558;127.058;2023-07-20T12:26:55;4.65;;;1.80;;
74715;SDS011;63234;37.558;127.058;2023-07-20T12:31:51;4.25;;;1.88;;
74715;SDS011;63234;37.558;127.058;2023-07-20T12:34:17;2.15;;;1.40;;
74715;SDS011;63234;37.558;127.058;2023-07-20T12:36:43;3.55;;;1.50;;
74715;SDS011;63234;37.558;127.058;2023-07-20T12:39:09;3.25;;;1.48;;
74715;SDS011;63234;37.558;127.058;2023-07-20T12:41:35;4.68;;;1.42;;
74715;SDS011;63234;37.558;127.058;2023-07-20T12:44:01;2.25;;;1.23;;
74715;SDS011;63234;37.558;127.058;2023-07-20T12:46:29;3.53;;;1.77;;
74715;SDS011;63234;37.558;127.058;2023-07-20T12:49:00;2.72;;;1.80;;
74715;SDS011;63234;37.558;127.058;2023-07-20T12:51:26;4.05;;;1.48;;
74715;SDS011;63234;37.558;127.058;2023-07-20T12:53:52;2.90;;;1.50;;
74715;SDS011;63234;37.558;127.058;2023-07-20T12:56:18;3.22;;;1.95;;
74715;SDS011;63234;37.558;127.058;2023-07-20T12:58:44;2.50;;;1.50;;
74715;SDS011;63234;37.558;127.058;2023-07-20T13:01:10;3.72;;;1.70;;
74715;SDS011;63234;37.558;127.058;2023-07-20T13:03:36;2.28;;;1.50;;
74715;SDS011;63234;37.558;127.058;2023-07-20T13:06:02;4.07;;;1.73;;
74715;SDS011;63234;37.558;127.058;2023-07-20T13:08:28;3.13;;;1.45;;
74715;SDS011;63234;37.558;127.058;2023-07-20T13:10:57;2.08;;;1.27;;
74715;SDS011;63234;37.558;127.058;2023-07-20T13:13:23;2.97;;;1.55;;
74715;SDS011;63234;37.558;127.058;2023-07-20T13:15:49;2.47;;;1.67;;
74715;SDS011;63234;37.558;127.058;2023-07-20T13:18:15;2.53;;;1.70;;
74715;SDS011;63234;37.558;127.058;2023-07-20T13:20:42;3.10;;;1.45;;
74715;SDS011;63234;37.558;127.058;2023-07-20T13:23:08;3.50;;;1.45;;
74715;SDS011;63234;37.558;127.058;2023-07-20T13:25:34;4.35;;;1.65;;
74715;SDS011;63234;37.558;127.058;2023-07-20T13:28:00;3.50;;;1.50;;
74715;SDS011;63234;37.558;127.058;2023-07-20T13:30:26;3.20;;;1.65;;
74715;SDS011;63234;37.558;127.058;2023-07-20T13:32:52;2.55;;;1.30;;
74715;SDS011;63234;37.558;127.058;2023-07-20T13:35:18;4.28;;;1.70;;
74715;SDS011;63234;37.558;127.058;2023-07-20T13:37:44;4.53;;;1.83;;
74715;SDS011;63234;37.558;127.058;2023-07-20T13:40:10;2.15;;;1.33;;
74715;SDS011;63234;37.558;127.058;2023-07-20T13:42:38;2.17;;;1.30;;
74715;SDS011;63234;37.558;127.058;2023-07-20T13:45:06;5.18;;;1.40;;
74715;SDS011;63234;37.558;127.058;2023-07-20T13:47:32;1.85;;;1.40;;
74715;SDS011;63234;37.558;127.058;2023-07-20T13:49:58;5.20;;;1.70;;
74715;SDS011;63234;37.558;127.058;2023-07-20T13:52:24;2.45;;;1.63;;
74715;SDS011;63234;37.558;127.058;2023-07-20T13:54:50;5.70;;;1.60;;
74715;SDS011;63234;37.558;127.058;2023-07-20T13:57:16;2.17;;;1.50;;
74715;SDS011;63234;37.558;127.058;2023-07-20T13:59:42;2.30;;;1.50;;
74715;SDS011;63234;37.558;127.058;2023-07-20T14:02:09;2.10;;;1.42;;
74715;SDS011;63234;37.558;127.058;2023-07-20T14:04:35;1.95;;;1.40;;
74715;SDS011;63234;37.558;127.058;2023-07-20T14:07:02;2.92;;;1.50;;
74715;SDS011;63234;37.558;127.058;2023-07-20T14:09:28;2.33;;;1.38;;
74715;SDS011;63234;37.558;127.058;2023-07-20T14:11:54;1.90;;;1.50;;
74715;SDS011;63234;37.558;127.058;2023-07-20T14:14:20;2.33;;;1.45;;
74715;SDS011;63234;37.558;127.058;2023-07-20T14:16:46;2.75;;;1.70;;
74715;SDS011;63234;37.558;127.058;2023-07-20T14:19:12;3.45;;;1.67;;
74715;SDS011;63234;37.558;127.058;2023-07-20T14:21:38;2.63;;;1.33;;
74715;SDS011;63234;37.558;127.058;2023-07-20T14:24:04;4.03;;;1.30;;
74715;SDS011;63234;37.558;127.058;2023-07-20T14:26:30;2.72;;;1.52;;
74715;SDS011;63234;37.558;127.058;2023-07-20T14:28:56;3.92;;;1.67;;
74715;SDS011;63234;37.558;127.058;2023-07-20T14:31:22;2.50;;;1.67;;
74715;SDS011;63234;37.558;127.058;2023-07-20T14:33:48;4.93;;;1.52;;
74715;SDS011;63234;37.558;127.058;2023-07-20T14:36:15;2.55;;;1.45;;
74715;SDS011;63234;37.558;127.058;2023-07-20T14:38:41;1.85;;;1.20;;
74715;SDS011;63234;37.558;127.058;2023-07-20T14:41:08;2.33;;;1.38;;
74715;SDS011;63234;37.558;127.058;2023-07-20T14:43:34;2.35;;;1.73;;
74715;SDS011;63234;37.558;127.058;2023-07-20T14:46:00;2.20;;;1.50;;
74715;SDS011;63234;37.558;127.058;2023-07-20T14:48:26;3.85;;;1.70;;
74715;SDS011;63234;37.558;127.058;2023-07-20T14:50:52;2.50;;;1.85;;